Time;durP1;ratioP1;P1;durP2;ratioP2;P2;SDS_P1;SDS_P2;PMS_P1;PMS_P2;Temp;Humidity;BMP_temperature;BMP_pressure;BME280_temperature;BME280_humidity;BME280_pressure;Samples;Min_cycle;Max_cycle;Signal;HPM_P1;HPM_P2
2022/01/04 00:00:40;;;;;;;10.38;7.60;;;7.70;97.20;;;;;;5057196;28;20433;-72
2022/01/04 00:03:06;;;;;;;9.85;7.72;;;7.70;97.40;;;;;;5055325;28;20482;-76
2022/01/04 00:05:32;;;;;;;10.55;8.30;;;7.60;97.80;;;;;;5056852;28;20021;-75
2022/01/04 00:07:59;;;;;;;11.40;8.55;;;7.60;98.30;;;;;;5049454;28;20033;-79
2022/01/04 00:10:27;;;;;;;12.90;9.75;;;7.60;98.70;;;;;;5047636;28;20059;-71
2022/01/04 00:15:41;;;;;;;12.18;9.82;;;7.50;99.30;;;;;;5056940;28;20039;-72
2022/01/04 00:18:07;;;;;;;12.35;9.15;;;7.50;99.30;;;;;;5053875;28;20040;-77
2022/01/04 00:20:32;;;;;;;10.50;9.02;;;7.50;99.30;;;;;;5035387;28;20029;-72
2022/01/04 00:22:58;;;;;;;12.35;9.13;;;7.50;99.40;;;;;;5036442;28;20375;-71
2022/01/04 00:25:23;;;;;;;11.55;9.50;;;7.50;99.20;;;;;;5035136;28;20379;-72
2022/01/04 00:27:49;;;;;;;10.60;9.50;;;7.50;99.10;;;;;;5049191;28;20032;-71
2022/01/04 00:30:15;;;;;;;11.05;8.93;;;7.50;99.10;;;;;;5039166;28;20104;-70
2022/01/04 00:32:41;;;;;;;12.43;9.45;;;7.50;99.00;;;;;;5036591;28;20051;-72
2022/01/04 00:35:07;;;;;;;12.25;9.10;;;7.50;98.90;;;;;;5036240;28;20037;-72
2022/01/04 00:37:33;;;;;;;10.57;9.10;;;7.40;98.90;;;;;;5036318;28;20033;-73
2022/01/04 00:39:59;;;;;;;12.23;8.90;;;7.40;99.20;;;;;;5048081;28;20400;-74
2022/01/04 00:42:24;;;;;;;10.98;8.55;;;7.40;99.30;;;;;;5061254;28;20482;-73
2022/01/04 00:44:50;;;;;;;11.40;8.98;;;7.40;99.30;;;;;;5055871;28;20104;-73
2022/01/04 00:47:16;;;;;;;11.60;8.90;;;7.50;99.30;;;;;;5056061;28;20021;-73
2022/01/04 00:49:42;;;;;;;10.90;9.18;;;7.50;99.30;;;;;;5055983;28;20028;-73
2022/01/04 00:52:16;;;;;;;12.50;9.73;;;7.40;99.30;;;;;;5053925;28;20037;-75
2022/01/04 00:54:41;;;;;;;16.48;10.63;;;7.50;99.50;;;;;;5035980;28;20546;-73
2022/01/04 00:57:07;;;;;;;15.73;11.10;;;7.50;99.30;;;;;;5035732;28;20057;-72
2022/01/04 00:59:33;;;;;;;15.93;12.55;;;7.50;99.10;;;;;;5035831;28;20106;-73
2022/01/04 01:01:58;;;;;;;16.13;12.30;;;7.50;99.20;;;;;;5034546;28;20037;-74
2022/01/04 01:04:24;;;;;;;12.57;10.98;;;7.50;99.20;;;;;;5039008;28;20531;-74
2022/01/04 01:06:49;;;;;;;15.50;12.02;;;7.50;99.50;;;;;;5056515;28;20482;-72
2022/01/04 01:09:15;;;;;;;14.70;11.10;;;7.50;99.40;;;;;;5054568;28;20021;-74
2022/01/04 01:11:41;;;;;;;13.30;10.82;;;7.40;99.60;;;;;;5054247;28;20132;-73
2022/01/04 01:14:07;;;;;;;11.10;9.85;;;7.40;99.50;;;;;;5055428;28;20449;-73
2022/01/04 01:16:33;;;;;;;13.55;10.50;;;7.40;99.70;;;;;;5048503;28;20036;-74
2022/01/04 01:18:58;;;;;;;12.82;9.82;;;7.40;99.90;;;;;;5036584;28;20026;-73
2022/01/04 01:21:24;;;;;;;11.25;9.40;;;7.40;99.90;;;;;;5035813;28;20468;-73
2022/01/04 01:23:50;;;;;;;11.27;9.43;;;7.40;99.90;;;;;;5034542;28;20052;-74
2022/01/04 01:26:15;;;;;;;10.82;8.93;;;7.40;99.90;;;;;;5038731;28;20021;-72
2022/01/04 01:28:41;;;;;;;11.25;8.88;;;7.30;99.90;;;;;;5047423;28;20037;-74
2022/01/04 01:31:08;;;;;;;11.02;8.95;;;7.40;99.90;;;;;;5033663;28;20044;-75
2022/01/04 01:33:34;;;;;;;13.70;9.23;;;7.40;99.90;;;;;;5033954;28;20057;-75
2022/01/04 01:36:00;;;;;;;10.70;8.77;;;7.30;99.90;;;;;;5035334;28;20105;-76
2022/01/04 01:38:26;;;;;;;11.82;9.32;;;7.30;99.90;;;;;;5053117;28;20036;-74
2022/01/04 01:40:53;;;;;;;11.05;9.20;;;7.40;99.90;;;;;;5054992;28;20025;-78
2022/01/04 01:43:19;;;;;;;12.18;9.07;;;7.30;99.90;;;;;;5053670;28;20043;-79
2022/01/04 01:45:45;;;;;;;14.02;9.23;;;7.40;99.90;;;;;;5053654;28;20032;-74
2022/01/04 01:48:12;;;;;;;12.75;9.15;;;7.40;99.90;;;;;;5052926;28;20040;-79
2022/01/04 01:50:37;;;;;;;9.77;8.55;;;7.40;99.90;;;;;;5066215;28;20048;-74
2022/01/04 01:53:04;;;;;;;10.43;8.07;;;7.40;99.90;;;;;;5035454;28;20108;-75
2022/01/04 01:55:30;;;;;;;10.70;8.45;;;7.40;99.90;;;;;;5054721;28;20051;-74
2022/01/04 01:57:57;;;;;;;10.88;7.38;;;7.40;99.90;;;;;;5054983;28;20029;-73
2022/01/04 02:00:25;;;;;;;12.15;7.63;;;7.30;99.90;;;;;;5050848;28;20025;-73
2022/01/04 02:02:51;;;;;;;11.07;7.85;;;7.40;99.90;;;;;;5032726;28;20032;-77
2022/01/04 02:05:17;;;;;;;10.38;9.20;;;7.40;99.70;;;;;;5051718;28;20021;-74
2022/01/04 02:07:44;;;;;;;27.42;22.55;;;7.40;99.70;;;;;;5054856;28;20028;-73
2022/01/04 02:10:11;;;;;;;14.07;11.60;;;7.30;99.60;;;;;;5059708;28;20371;-73
2022/01/04 02:12:37;;;;;;;12.05;9.05;;;7.30;99.70;;;;;;5048014;28;20052;-74
2022/01/04 02:15:06;;;;;;;9.60;6.72;;;7.30;99.70;;;;;;5033268;28;20025;-75
2022/01/04 02:17:32;;;;;;;8.88;6.32;;;7.30;99.50;;;;;;5034311;28;20046;-74
2022/01/04 02:19:59;;;;;;;8.80;6.70;;;7.30;99.70;;;;;;5033767;28;20030;-76
2022/01/04 02:22:26;;;;;;;9.48;6.70;;;7.40;99.40;;;;;;5033568;28;20487;-75
2022/01/04 02:24:52;;;;;;;7.95;6.03;;;7.40;99.10;;;;;;5032113;28;20056;-74
2022/01/04 02:27:18;;;;;;;7.40;6.18;;;7.40;99.10;;;;;;5032168;28;20037;-74
2022/01/04 02:29:44;;;;;;;8.35;6.25;;;7.40;99.10;;;;;;5031912;28;20029;-75
2022/01/04 02:32:11;;;;;;;8.15;5.88;;;7.40;99.10;;;;;;5052322;28;20087;-74
2022/01/04 02:34:38;;;;;;;8.13;6.00;;;7.40;99.10;;;;;;5053362;28;20220;-73
2022/01/04 02:37:04;;;;;;;7.90;5.85;;;7.40;98.90;;;;;;5044868;28;20065;-74
2022/01/04 02:39:31;;;;;;;9.38;6.20;;;7.40;98.90;;;;;;5037316;28;20033;-77
2022/01/04 02:41:57;;;;;;;8.48;6.50;;;7.40;98.90;;;;;;5045088;28;20025;-74
2022/01/04 02:44:23;;;;;;;8.00;6.00;;;7.40;98.90;;;;;;5055265;28;20025;-74
2022/01/04 02:46:49;;;;;;;7.90;5.72;;;7.30;98.90;;;;;;5047269;28;20063;-73
2022/01/04 02:49:14;;;;;;;9.05;6.47;;;7.30;99.10;;;;;;5033821;28;20055;-74
2022/01/04 02:51:40;;;;;;;8.02;6.28;;;7.30;99.20;;;;;;5033417;28;20064;-74
2022/01/04 02:54:05;;;;;;;8.15;5.82;;;7.30;99.30;;;;;;5032239;28;20387;-73
2022/01/04 02:56:31;;;;;;;7.75;5.85;;;7.30;99.40;;;;;;5034087;28;20167;-77
2022/01/04 02:59:03;;;;;;;7.45;5.53;;;7.30;99.70;;;;;;5031667;28;20037;-73
2022/01/04 03:01:29;;;;;;;7.82;6.10;;;7.30;99.90;;;;;;5031783;28;20029;-77
2022/01/04 03:03:55;;;;;;;7.85;6.20;;;7.30;99.90;;;;;;5031576;28;20108;-74
2022/01/04 03:06:21;;;;;;;8.57;6.75;;;7.30;99.90;;;;;;5031645;28;20060;-77
2022/01/04 03:08:46;;;;;;;9.10;7.40;;;7.30;99.90;;;;;;5038881;28;20103;-74
2022/01/04 03:11:12;;;;;;;9.88;7.80;;;7.30;99.90;;;;;;5052536;28;20029;-77
2022/01/04 03:13:37;;;;;;;9.45;7.55;;;7.30;99.90;;;;;;5007952;28;1291743;-74
2022/01/04 03:16:03;;;;;;;8.90;7.88;;;7.30;99.90;;;;;;5053916;28;20119;-74
2022/01/04 03:18:29;;;;;;;12.60;10.18;;;7.20;99.90;;;;;;5053551;28;20036;-75
2022/01/04 03:20:55;;;;;;;15.15;11.75;;;7.20;99.90;;;;;;5036786;28;20025;-74
2022/01/04 03:23:21;;;;;;;20.35;17.42;;;7.20;99.90;;;;;;5033153;28;20079;-74
2022/01/04 03:25:46;;;;;;;22.33;19.27;;;7.30;99.90;;;;;;5033442;28;20499;-78
2022/01/04 03:28:13;;;;;;;24.08;20.45;;;7.30;99.90;;;;;;5032575;28;20532;-74
2022/01/04 03:30:39;;;;;;;20.65;17.75;;;7.30;99.90;;;;;;5033423;28;20045;-73
2022/01/04 03:33:05;;;;;;;19.63;16.90;;;7.30;99.90;;;;;;5035752;28;20021;-72
2022/01/04 03:35:31;;;;;;;17.45;14.32;;;7.20;99.90;;;;;;5052564;28;20037;-72
2022/01/04 03:37:56;;;;;;;14.30;12.38;;;7.20;99.90;;;;;;5056890;28;20056;-72
2022/01/04 03:40:22;;;;;;;11.18;9.68;;;7.30;99.90;;;;;;5053298;28;20029;-72
2022/01/04 03:42:48;;;;;;;10.63;8.75;;;7.30;99.90;;;;;;5052164;28;20029;-72
2022/01/04 03:45:14;;;;;;;10.63;8.57;;;7.30;99.90;;;;;;5035789;28;20025;-72
2022/01/04 03:47:39;;;;;;;9.70;7.95;;;7.30;99.90;;;;;;5032094;28;20041;-72
2022/01/04 03:50:05;;;;;;;9.85;8.18;;;7.30;99.90;;;;;;5033230;28;20558;-74
2022/01/04 03:52:31;;;;;;;12.02;7.60;;;7.30;99.90;;;;;;5033184;28;20488;-74
2022/01/04 03:54:57;;;;;;;10.80;7.57;;;7.30;99.90;;;;;;5051706;28;20032;-75
2022/01/04 03:57:23;;;;;;;9.13;7.60;;;7.20;99.90;;;;;;5053145;28;20031;-72
2022/01/04 03:59:48;;;;;;;9.70;6.80;;;7.30;99.90;;;;;;5053126;28;20025;-73
2022/01/04 04:02:14;;;;;;;9.27;7.28;;;7.30;99.90;;;;;;5051067;28;20128;-78
2022/01/04 04:04:40;;;;;;;9.07;7.00;;;7.30;99.90;;;;;;5039278;28;20057;-73
2022/01/04 04:07:05;;;;;;;10.13;7.93;;;7.20;99.70;;;;;;5035632;28;20030;-73
2022/01/04 04:09:34;;;;;;;9.30;7.70;;;7.10;99.50;;;;;;5032998;28;20052;-74
2022/01/04 04:12:01;;;;;;;12.30;9.18;;;7.10;99.50;;;;;;5034347;28;20506;-73
2022/01/04 04:14:28;;;;;;;12.07;8.50;;;7.00;99.70;;;;;;5035127;28;20128;-73
2022/01/04 04:16:54;;;;;;;12.32;8.75;;;6.90;99.90;;;;;;5035051;28;20605;-73
2022/01/04 04:19:20;;;;;;;12.50;8.45;;;6.80;99.90;;;;;;5036568;28;20057;-73
2022/01/04 04:21:45;;;;;;;10.60;8.07;;;6.70;99.90;;;;;;5036323;28;20026;-74
2022/01/04 04:24:11;;;;;;;11.75;7.65;;;6.70;99.90;;;;;;5035311;28;20065;-79
2022/01/04 04:26:37;;;;;;;9.55;7.10;;;6.70;99.90;;;;;;5037757;28;20041;-74
2022/01/04 04:29:03;;;;;;;8.65;6.50;;;6.70;99.90;;;;;;5034848;28;20120;-79
2022/01/04 04:31:29;;;;;;;10.38;7.05;;;6.80;99.90;;;;;;5034983;28;20025;-74
2022/01/04 04:33:54;;;;;;;8.60;6.63;;;6.80;99.90;;;;;;5036269;28;20033;-73
2022/01/04 04:36:20;;;;;;;6.32;3.10;;;6.80;99.90;;;;;;5035467;28;20021;-74
2022/01/04 04:38:46;;;;;;;6.22;3.30;;;6.80;99.90;;;;;;5040858;28;20100;-73
2022/01/04 04:41:11;;;;;;;8.00;6.20;;;6.80;99.90;;;;;;5044718;28;20034;-74
2022/01/04 04:43:37;;;;;;;8.75;6.85;;;6.90;99.90;;;;;;5034531;28;20478;-72
2022/01/04 04:46:03;;;;;;;8.25;6.68;;;6.90;99.90;;;;;;5034681;28;20033;-73
2022/01/04 04:48:29;;;;;;;10.32;7.47;;;6.90;99.90;;;;;;5047542;28;20029;-71
2022/01/04 04:50:55;;;;;;;9.73;7.72;;;7.00;99.90;;;;;;5039570;28;20114;-73
2022/01/04 04:53:21;;;;;;;10.48;7.50;;;7.00;99.90;;;;;;5034787;28;20136;-74
2022/01/04 04:55:46;;;;;;;8.90;7.03;;;7.00;99.90;;;;;;5034689;28;20028;-74
2022/01/04 04:58:12;;;;;;;12.20;7.15;;;7.00;99.90;;;;;;5035593;28;20057;-79
2022/01/04 05:00:38;;;;;;;10.05;7.78;;;7.10;99.90;;;;;;5035525;28;20429;-73
2022/01/04 05:03:04;;;;;;;8.98;7.07;;;7.00;99.90;;;;;;5035483;28;20034;-74
2022/01/04 05:05:30;;;;;;;8.40;6.97;;;7.10;99.90;;;;;;5039839;28;20036;-75
2022/01/04 05:07:55;;;;;;;9.02;6.60;;;7.10;99.90;;;;;;5053689;28;20378;-75
2022/01/04 05:10:21;;;;;;;9.98;6.75;;;7.00;99.90;;;;;;5055809;28;20109;-75
2022/01/04 05:12:47;;;;;;;11.40;7.70;;;7.00;99.90;;;;;;5053716;28;20097;-72
2022/01/04 05:15:12;;;;;;;11.77;7.97;;;7.10;99.90;;;;;;5042907;28;20040;-75
2022/01/04 05:17:38;;;;;;;11.70;8.13;;;7.10;99.90;;;;;;5035083;28;20022;-74
2022/01/04 05:20:04;;;;;;;12.00;8.45;;;7.10;99.90;;;;;;5034108;28;20035;-73
2022/01/04 05:22:30;;;;;;;10.15;7.30;;;7.10;99.90;;;;;;5034223;28;20033;-74
2022/01/04 05:24:56;;;;;;;11.23;8.38;;;7.10;99.90;;;;;;5036792;28;20526;-71
2022/01/04 05:27:22;;;;;;;12.13;9.00;;;7.10;99.90;;;;;;5053132;28;20028;-73
2022/01/04 05:29:47;;;;;;;12.65;8.80;;;7.10;99.90;;;;;;5052710;28;20037;-76
2022/01/04 05:32:13;;;;;;;13.18;9.20;;;7.10;99.90;;;;;;5035533;28;20475;-73
2022/01/04 05:34:39;;;;;;;11.98;8.52;;;7.10;99.90;;;;;;5034014;28;20049;-73
2022/01/04 05:37:05;;;;;;;10.85;8.45;;;7.10;99.90;;;;;;5033844;28;20037;-73
2022/01/04 05:39:31;;;;;;;11.10;7.50;;;7.10;99.90;;;;;;5033571;28;20025;-74
2022/01/04 05:41:56;;;;;;;8.70;6.43;;;7.00;99.90;;;;;;5048483;28;20115;-73
2022/01/04 05:44:22;;;;;;;7.55;5.90;;;6.90;99.80;;;;;;5054827;28;20032;-74
2022/01/04 05:46:48;;;;;;;7.55;5.93;;;6.90;99.90;;;;;;5053601;28;20025;-75
2022/01/04 05:49:14;;;;;;;9.73;6.55;;;6.80;99.90;;;;;;5054639;28;20459;-75
2022/01/04 05:51:39;;;;;;;13.18;7.88;;;6.80;99.90;;;;;;5048747;28;20034;-78
2022/01/04 05:54:05;;;;;;;14.05;7.90;;;6.70;99.90;;;;;;5043671;28;20029;-75
2022/01/04 05:56:31;;;;;;;10.80;8.05;;;6.70;99.90;;;;;;5034548;28;20027;-74
2022/01/04 05:58:57;;;;;;;10.38;4.43;;;6.70;99.90;;;;;;5034183;28;20063;-73
2022/01/04 06:01:22;;;;;;;12.35;9.05;;;6.80;99.90;;;;;;5037957;28;20027;-71
2022/01/04 06:03:51;;;;;;;28.92;5.45;;;6.70;99.90;;;;;;5055965;28;20025;-73
2022/01/04 06:06:16;;;;;;;13.43;9.27;;;6.80;99.90;;;;;;5045436;28;20430;-74
2022/01/04 06:08:43;;;;;;;10.35;3.92;;;6.80;99.90;;;;;;5051011;28;20029;-73
2022/01/04 06:11:18;;;;;;;12.82;8.60;;;6.80;99.90;;;;;;5049047;28;20029;-72
2022/01/04 06:16:28;;;;;;;9.25;5.22;;;6.90;99.90;;;;;;5049991;28;20047;-75
2022/01/04 06:18:53;;;;;;;15.15;11.10;;;7.00;99.90;;;;;;5046279;28;20029;-72
2022/01/04 06:21:19;;;;;;;13.75;9.90;;;7.00;99.90;;;;;;5038675;28;20032;-75
2022/01/04 06:23:45;;;;;;;13.45;9.80;;;7.10;99.90;;;;;;5036494;28;20088;-74
2022/01/04 06:26:10;;;;;;;12.50;9.70;;;7.20;99.90;;;;;;5047134;28;20360;-73
2022/01/04 06:28:38;;;;;;;13.00;9.23;;;7.20;99.90;;;;;;5047546;28;20115;-73
2022/01/04 06:31:04;;;;;;;8.73;4.32;;;7.20;99.90;;;;;;5033454;28;20038;-75
2022/01/04 06:33:29;;;;;;;13.27;8.80;;;7.30;99.90;;;;;;5054725;28;20033;-75
2022/01/04 06:35:55;;;;;;;14.52;8.63;;;7.30;99.90;;;;;;5041406;28;20053;-71
2022/01/04 06:38:20;;;;;;;12.35;9.10;;;7.30;99.90;;;;;;5052424;28;20037;-76
2022/01/04 06:40:46;;;;;;;11.85;8.70;;;7.40;99.90;;;;;;5049417;28;20037;-76
2022/01/04 06:43:12;;;;;;;12.30;9.30;;;7.30;99.90;;;;;;5052201;28;20031;-72
2022/01/04 06:45:37;;;;;;;14.52;9.57;;;7.40;99.90;;;;;;5039783;28;20029;-74
2022/01/04 06:48:04;;;;;;;12.38;8.05;;;7.40;99.80;;;;;;5044392;28;20037;-75
2022/01/04 06:50:30;;;;;;;10.52;8.13;;;7.40;99.60;;;;;;5042656;28;20886;-75
2022/01/04 06:52:56;;;;;;;10.35;7.80;;;7.40;99.80;;;;;;5045405;28;20029;-76
2022/01/04 06:55:22;;;;;;;9.95;7.85;;;7.40;99.80;;;;;;5036360;28;20029;-74
2022/01/04 06:57:47;;;;;;;11.07;8.20;;;7.40;99.70;;;;;;5033136;28;20167;-73
2022/01/04 07:00:14;;;;;;;11.65;8.00;;;7.40;99.90;;;;;;5045709;28;20033;-75
2022/01/04 07:02:39;;;;;;;11.07;8.60;;;7.40;99.90;;;;;;5033060;28;20036;-74
2022/01/04 07:05:05;;;;;;;11.48;8.27;;;7.40;99.90;;;;;;5033684;28;20112;-74
2022/01/04 07:07:31;;;;;;;14.48;11.45;;;7.30;99.90;;;;;;5039341;28;20136;-76
2022/01/04 07:09:56;;;;;;;15.35;11.80;;;7.30;99.90;;;;;;5053634;28;20040;-76
2022/01/04 07:12:22;;;;;;;21.05;14.30;;;7.30;99.90;;;;;;5052946;28;20060;-77
2022/01/04 07:14:48;;;;;;;19.73;14.15;;;7.30;99.90;;;;;;5038028;28;20068;-76
2022/01/04 07:17:16;;;;;;;19.00;14.10;;;7.30;99.90;;;;;;5039007;28;20026;-73
2022/01/04 07:19:43;;;;;;;18.90;14.10;;;7.20;99.90;;;;;;5049616;28;20033;-74
2022/01/04 07:22:09;;;;;;;17.33;12.88;;;7.20;99.90;;;;;;5045812;28;20475;-75
2022/01/04 07:24:35;;;;;;;16.58;11.90;;;7.20;99.90;;;;;;5047990;28;20068;-77
2022/01/04 07:27:00;;;;;;;17.33;12.68;;;7.20;99.90;;;;;;5052966;28;20117;-77
2022/01/04 07:29:26;;;;;;;19.67;13.68;;;7.20;99.90;;;;;;5040633;28;20104;-73
2022/01/04 07:31:52;;;;;;;17.40;13.15;;;7.20;99.90;;;;;;5037643;28;20467;-85
2022/01/04 07:34:17;;;;;;;20.63;14.15;;;7.30;99.90;;;;;;5034780;28;20034;-75
2022/01/04 07:36:43;;;;;;;19.70;14.40;;;7.30;99.90;;;;;;5037135;28;20037;-77
2022/01/04 07:39:09;;;;;;;19.95;15.10;;;7.40;99.90;;;;;;5034456;28;20057;-75
2022/01/04 07:41:35;;;;;;;21.85;15.50;;;7.40;99.90;;;;;;5034231;28;20053;-81
2022/01/04 07:44:01;;;;;;;17.63;14.32;;;7.40;99.90;;;;;;5037102;28;20413;-85
2022/01/04 07:46:27;;;;;;;15.85;12.43;;;7.50;99.90;;;;;;5047552;28;20028;-82
2022/01/04 07:48:53;;;;;;;18.02;12.68;;;7.50;99.90;;;;;;5050541;28;20036;-76
2022/01/04 07:51:19;;;;;;;13.85;11.13;;;7.60;99.90;;;;;;5046725;28;20030;-75
2022/01/04 07:53:45;;;;;;;17.77;11.32;;;7.60;99.90;;;;;;5041199;28;20067;-78
2022/01/04 07:56:11;;;;;;;13.13;10.45;;;7.60;99.90;;;;;;5055209;28;20036;-71
2022/01/04 07:58:37;;;;;;;12.68;10.07;;;7.60;99.90;;;;;;5042209;28;20037;-68
2022/01/04 08:01:02;;;;;;;13.75;10.93;;;7.60;99.90;;;;;;5051554;28;20040;-72
2022/01/04 08:03:28;;;;;;;16.15;12.20;;;7.60;99.90;;;;;;5042494;28;20025;-72
2022/01/04 08:05:54;;;;;;;16.40;12.35;;;7.60;99.90;;;;;;5049983;28;20025;-80
2022/01/04 08:08:20;;;;;;;14.45;10.70;;;7.60;99.90;;;;;;5056410;28;20443;-75
2022/01/04 08:10:47;;;;;;;15.40;11.35;;;7.70;99.90;;;;;;5058839;28;20071;-73
2022/01/04 08:13:13;;;;;;;15.23;11.43;;;7.70;99.90;;;;;;5046125;28;20067;-69
2022/01/04 08:15:39;;;;;;;14.93;10.25;;;7.80;99.90;;;;;;5052750;28;20025;-71
2022/01/04 08:18:05;;;;;;;14.40;9.93;;;7.80;99.90;;;;;;5049825;28;20033;-76
2022/01/04 08:20:30;;;;;;;12.95;9.90;;;7.80;99.90;;;;;;5037345;28;20033;-75
2022/01/04 08:22:57;;;;;;;11.93;9.35;;;7.90;99.90;;;;;;5036383;28;20156;-73
2022/01/04 08:25:23;;;;;;;13.40;9.73;;;7.90;99.40;;;;;;5044676;28;20121;-77
2022/01/04 08:27:49;;;;;;;14.82;10.35;;;7.90;98.90;;;;;;5042835;28;20100;-76
2022/01/04 08:30:15;;;;;;;14.63;10.00;;;8.00;98.80;;;;;;5038711;28;20095;-78
2022/01/04 08:32:42;;;;;;;15.98;10.57;;;8.10;98.60;;;;;;5044961;28;20128;-70
2022/01/04 08:35:09;;;;;;;13.45;9.70;;;8.10;98.20;;;;;;5045976;28;20120;-74
2022/01/04 08:37:35;;;;;;;13.63;9.88;;;8.20;97.40;;;;;;5038154;28;20038;-71
2022/01/04 08:40:00;;;;;;;14.50;10.38;;;8.10;96.90;;;;;;5050028;28;20056;-80
2022/01/04 08:42:27;;;;;;;13.88;10.10;;;8.10;97.20;;;;;;5051782;28;20061;-85
2022/01/04 08:44:55;;;;;;;12.23;9.50;;;8.10;96.90;;;;;;5054813;28;20056;-84
2022/01/04 08:47:21;;;;;;;11.73;8.70;;;8.20;96.70;;;;;;5047077;28;20075;-83
2022/01/04 08:49:47;;;;;;;10.88;8.60;;;8.20;96.40;;;;;;5036131;28;20034;-86
2022/01/04 08:52:12;;;;;;;10.15;8.27;;;8.30;96.20;;;;;;5034671;28;20029;-85
2022/01/04 08:54:38;;;;;;;9.98;8.00;;;8.30;95.70;;;;;;5036907;28;20383;-88
2022/01/04 08:57:04;;;;;;;11.18;8.38;;;8.30;95.60;;;;;;5050304;28;20387;-84
2022/01/04 08:59:32;;;;;;;10.65;8.23;;;8.30;95.00;;;;;;5039897;28;20034;-78
2022/01/04 09:01:58;;;;;;;10.32;7.90;;;8.30;94.80;;;;;;5044458;28;20039;-84
2022/01/04 09:04:24;;;;;;;10.20;8.10;;;8.30;94.50;;;;;;5054817;28;20103;-86
2022/01/04 09:06:50;;;;;;;10.88;8.23;;;8.40;94.30;;;;;;5043593;28;20039;-81
2022/01/04 09:09:16;;;;;;;13.20;9.52;;;8.30;93.90;;;;;;5035271;28;20033;-77
2022/01/04 09:11:43;;;;;;;15.15;10.65;;;8.30;94.10;;;;;;5035915;28;20033;-73
2022/01/04 09:19:21;;;;;;;14.98;10.50;;;8.50;93.50;;;;;;5041452;28;20031;-73
2022/01/04 09:21:47;;;;;;;12.90;10.05;;;8.50;93.30;;;;;;5046942;28;20028;-73
2022/01/04 09:24:13;;;;;;;11.80;9.80;;;8.60;93.10;;;;;;5054393;28;20525;-74
2022/01/04 09:26:38;;;;;;;13.65;9.50;;;8.70;92.60;;;;;;5046349;28;20029;-72
2022/01/04 09:29:04;;;;;;;11.63;9.85;;;8.70;92.20;;;;;;5052631;28;20033;-74
2022/01/04 09:31:30;;;;;;;16.25;11.55;;;8.70;91.90;;;;;;5054045;28;20045;-73
2022/01/04 09:33:58;;;;;;;15.57;12.13;;;8.80;91.70;;;;;;5049031;28;20051;-74
2022/01/04 09:36:25;;;;;;;18.35;12.15;;;8.80;91.50;;;;;;5052119;28;20025;-71
2022/01/04 09:38:52;;;;;;;18.67;12.90;;;8.70;91.60;;;;;;5054910;28;20021;-72
2022/01/04 09:41:17;;;;;;;17.90;12.63;;;8.80;91.80;;;;;;5048281;28;20048;-73
2022/01/04 09:43:43;;;;;;;18.35;12.75;;;8.80;91.70;;;;;;5046583;28;20109;-71
2022/01/04 09:46:08;;;;;;;21.33;14.05;;;8.80;91.70;;;;;;5035304;28;20103;-70
2022/01/04 09:48:34;;;;;;;20.70;14.00;;;8.80;92.00;;;;;;5044124;28;20025;-70
2022/01/04 09:51:02;;;;;;;22.25;13.90;;;8.90;92.30;;;;;;5046176;28;20061;-70
2022/01/04 09:53:27;;;;;;;17.85;12.32;;;9.00;92.40;;;;;;5053575;28;20033;-72
2022/01/04 09:55:55;;;;;;;18.45;12.68;;;9.10;91.90;;;;;;5054607;28;20147;-68
2022/01/04 09:58:23;;;;;;;18.98;12.95;;;9.30;91.40;;;;;;5053101;28;20021;-67
2022/01/04 10:00:50;;;;;;;19.42;13.10;;;9.40;91.00;;;;;;5053311;28;20036;-66
2022/01/04 10:03:26;;;;;;;16.80;11.82;;;9.50;90.50;;;;;;5054454;28;20078;-67
2022/01/04 10:06:19;;;;;;;16.60;11.18;;;10.10;91.60;;;;;;5054599;28;20021;-67
2022/01/04 10:09:04;;;;;;;12.02;8.63;;;11.30;89.20;;;;;;5053047;28;20028;-64
2022/01/04 10:11:47;;;;;;;11.60;7.25;;;12.30;84.70;;;;;;5052072;28;20033;-68
2022/01/04 10:14:28;;;;;;;9.00;6.32;;;13.20;80.70;;;;;;5053063;28;20037;-68
2022/01/04 10:16:57;;;;;;;11.93;6.75;;;13.80;75.70;;;;;;5053186;28;20056;-69
2022/01/04 10:19:37;;;;;;;10.68;6.35;;;14.20;73.80;;;;;;5054023;28;20463;-68
2022/01/04 10:22:31;;;;;;;10.32;6.72;;;14.40;71.40;;;;;;5054528;28;20033;-68
2022/01/04 10:25:02;;;;;;;10.90;6.75;;;14.40;69.80;;;;;;5054385;28;20104;-79
2022/01/04 10:27:53;;;;;;;9.63;6.65;;;14.40;70.40;;;;;;5053860;28;20353;-70
2022/01/04 10:30:30;;;;;;;9.30;7.30;;;14.70;69.30;;;;;;5054004;28;20029;-69
2022/01/04 10:33:12;;;;;;;8.77;6.43;;;14.70;67.30;;;;;;5053801;28;20032;-69
2022/01/04 10:35:43;;;;;;;9.20;6.63;;;14.90;67.50;;;;;;5053960;28;20037;-69
2022/01/04 10:38:24;;;;;;;8.73;6.90;;;15.30;66.50;;;;;;5052458;28;20078;-68
2022/01/04 10:41:05;;;;;;;8.52;5.43;;;15.70;65.10;;;;;;5052545;28;20064;-69
2022/01/04 10:43:40;;;;;;;7.97;5.53;;;15.70;63.30;;;;;;5053568;28;20032;-69
2022/01/04 10:46:06;;;;;;;6.80;4.60;;;15.00;63.00;;;;;;5054061;28;20033;-68
2022/01/04 10:48:36;;;;;;;7.25;4.68;;;14.50;63.60;;;;;;5052865;28;20029;-72
2022/01/04 10:51:10;;;;;;;10.18;4.88;;;13.90;64.20;;;;;;5053119;28;20451;-67
2022/01/04 10:53:45;;;;;;;8.90;6.00;;;13.30;65.10;;;;;;5054419;28;20025;-69
2022/01/04 10:56:17;;;;;;;9.18;6.13;;;12.70;66.10;;;;;;5053012;28;20466;-69
2022/01/04 10:58:46;;;;;;;8.55;5.22;;;12.30;67.40;;;;;;5054370;28;20506;-66
2022/01/04 11:01:15;;;;;;;8.57;5.80;;;12.00;68.00;;;;;;5053330;28;21142;-67
2022/01/04 11:03:46;;;;;;;9.23;5.88;;;11.60;68.60;;;;;;5055234;28;20025;-68
2022/01/04 11:06:36;;;;;;;8.98;5.55;;;11.30;69.40;;;;;;5054198;28;20021;-69
2022/01/04 11:09:04;;;;;;;8.93;6.38;;;11.00;70.40;;;;;;5052498;28;20040;-76
2022/01/04 11:11:30;;;;;;;10.00;6.18;;;10.80;71.10;;;;;;5052101;28;20040;-67
2022/01/04 11:13:55;;;;;;;11.90;8.05;;;10.70;71.80;;;;;;5052491;28;20029;-68
2022/01/04 11:16:23;;;;;;;11.77;7.25;;;10.50;72.50;;;;;;5052224;28;20029;-69
2022/01/04 11:18:52;;;;;;;11.25;7.20;;;10.50;73.00;;;;;;5053562;28;20025;-68
2022/01/04 11:21:24;;;;;;;10.52;6.65;;;10.50;73.30;;;;;;5052245;28;20037;-69
2022/01/04 11:23:51;;;;;;;10.35;6.68;;;10.60;73.20;;;;;;5048196;28;20427;-70
2022/01/04 11:26:18;;;;;;;11.18;6.72;;;10.70;73.10;;;;;;5045643;28;20041;-67
2022/01/04 11:28:46;;;;;;;10.27;6.80;;;10.70;72.70;;;;;;5039957;28;20040;-69
2022/01/04 11:31:12;;;;;;;9.65;6.05;;;10.90;73.50;;;;;;5051052;28;20510;-67
2022/01/04 11:34:10;;;;;;;8.98;5.68;;;11.50;71.80;;;;;;5038735;28;20033;-64
2022/01/04 11:36:40;;;;;;;9.00;5.88;;;11.50;70.00;;;;;;5055207;28;20036;-66
2022/01/04 11:39:39;;;;;;;8.82;6.35;;;11.40;70.00;;;;;;5053703;28;20025;-64
2022/01/04 11:42:07;;;;;;;13.82;7.05;;;12.00;70.10;;;;;;5037780;28;20033;-73
2022/01/04 11:44:35;;;;;;;9.75;5.97;;;12.40;68.60;;;;;;5048648;28;20076;-76
2022/01/04 11:47:05;;;;;;;10.88;6.38;;;12.30;68.00;;;;;;5043159;28;20053;-72
2022/01/04 11:49:33;;;;;;;11.93;6.72;;;12.20;67.80;;;;;;5042089;28;20025;-68
2022/01/04 11:51:59;;;;;;;10.90;6.95;;;12.10;68.10;;;;;;5042009;28;20517;-75
2022/01/04 11:54:27;;;;;;;10.20;6.90;;;12.20;68.20;;;;;;5040003;28;20040;-73
2022/01/04 11:56:56;;;;;;;11.05;6.82;;;12.30;68.50;;;;;;5037813;28;20079;-70
2022/01/04 11:59:43;;;;;;;10.48;7.03;;;12.90;67.80;;;;;;5042038;28;20028;-74
2022/01/04 12:02:28;;;;;;;10.02;6.05;;;13.80;65.60;;;;;;5037605;28;20087;-76
2022/01/04 12:04:58;;;;;;;12.63;7.93;;;14.40;63.60;;;;;;5035427;28;20037;-71
2022/01/04 12:07:42;;;;;;;15.23;7.25;;;14.90;62.90;;;;;;5040586;28;20410;-74
2022/01/04 12:10:22;;;;;;;11.40;6.65;;;15.40;60.90;;;;;;5053868;28;20060;-71
2022/01/04 12:13:06;;;;;;;12.07;7.82;;;15.30;59.70;;;;;;5040142;28;20057;-68
2022/01/04 12:15:35;;;;;;;10.15;6.30;;;14.60;60.40;;;;;;5035703;28;20472;-74
2022/01/04 12:18:23;;;;;;;12.82;6.75;;;13.90;61.40;;;;;;5051272;28;20123;-72
2022/01/04 12:20:54;;;;;;;12.55;7.20;;;13.30;62.70;;;;;;5049664;28;20055;-72
2022/01/04 12:23:26;;;;;;;12.30;7.40;;;12.70;63.80;;;;;;5042221;28;20033;-69
2022/01/04 12:26:18;;;;;;;12.75;8.15;;;12.30;64.70;;;;;;5052646;28;20029;-72
2022/01/04 12:28:55;;;;;;;10.20;8.05;;;11.90;65.80;;;;;;5039305;28;20061;-72
2022/01/04 12:31:24;;;;;;;13.02;8.95;;;11.60;66.60;;;;;;5049199;28;20108;-71
2022/01/04 12:33:52;;;;;;;14.77;9.40;;;11.30;67.40;;;;;;5040378;28;20036;-72
2022/01/04 12:36:29;;;;;;;13.32;9.13;;;11.00;68.30;;;;;;5039241;28;20061;-73
2022/01/04 12:38:58;;;;;;;12.02;7.88;;;10.70;69.20;;;;;;5036767;28;20037;-68
2022/01/04 12:41:25;;;;;;;11.00;7.30;;;10.50;69.80;;;;;;5048940;28;20532;-71
2022/01/04 12:43:52;;;;;;;11.52;7.60;;;10.20;70.30;;;;;;5054736;28;20120;-71
2022/01/04 12:46:31;;;;;;;13.18;7.53;;;9.90;71.10;;;;;;5052930;28;20424;-69
2022/01/04 12:49:01;;;;;;;11.15;7.90;;;9.70;71.90;;;;;;5039794;28;20029;-74
2022/01/04 12:51:47;;;;;;;13.77;8.52;;;9.60;72.50;;;;;;5046411;28;20037;-76
2022/01/04 12:54:15;;;;;;;15.30;9.68;;;9.50;73.30;;;;;;5040136;28;20395;-75
2022/01/04 12:56:54;;;;;;;20.77;11.02;;;9.40;73.50;;;;;;5042485;28;20067;-76
2022/01/04 12:59:22;;;;;;;18.40;11.35;;;9.30;74.10;;;;;;5043072;28;20028;-76